MMTC/TRC METAR and TAF weather

Enter ICAO airport designator
Station Type Date Time Source
MMTC METAR 2018/12/15 20:52 UTC NOAA

MMTC 152052Z 08003KT 15SM SCT250 17/M10 A3027 RMK SLP227 58047 927 8/002


Station Type Date Time Source
MMTC Decoded METAR 2018/12/15 20:52 UTC NOAA

Torreon, Coah., Mexico (MMTC) 25-32N 103-27W 1150M
Dec 15, 2018 - 03:52 PM EST / 2018.12.15 2052 UTC
Wind: from the E (080 degrees) at 3 MPH (3 KT):0
Visibility: 15 mile(s):0
Sky conditions: partly cloudy
Temperature: 62 F (17 C)
Dew Point: 14 F (-10 C)
Relative Humidity: 14%
Pressure (altimeter): 30.27 in. Hg (1025 hPa)
Pressure tendency: 0.14 inches (4.7 hPa) lower than three hours ago
ob: MMTC 152052Z 08003KT 15SM SCT250 17/M10 A3027 RMK SLP227 58047 927 8/002
cycle: 21

Station Type Date Time Source
MMTC TAF 2018/12/15 18:07 UTC NOAA

TAF MMTC 151700Z 1518/1618 06005KT P6SM SCT100 BKN200
BECMG 1602/1603 00000KT
FM161700 07010KT P6SM BKN100 BKN250


Example: see airport list